sensor_id;sensor_type;location;lat;lon;timestamp;pressure;altitude;pressure_sealevel;temperature;humidity
17060;BME280;8646;49.716;9.266;2022-11-04T00:01:24;99197.28;;;10.81;100.00
17060;BME280;8646;49.716;9.266;2022-11-04T00:04:28;99184.47;;;10.84;100.00
17060;BME280;8646;49.716;9.266;2022-11-04T00:07:30;99180.78;;;10.85;100.00
17060;BME280;8646;49.716;9.266;2022-11-04T00:10:53;99170.72;;;10.87;100.00
17060;BME280;8646;49.716;9.266;2022-11-04T00:14:15;99158.19;;;10.86;100.00
17060;BME280;8646;49.716;9.266;2022-11-04T00:17:18;99158.19;;;10.86;100.00
17060;BME280;8646;49.716;9.266;2022-11-04T00:20:23;99150.91;;;10.87;100.00
17060;BME280;8646;49.716;9.266;2022-11-04T00:23:45;99159.91;;;10.87;100.00
17060;BME280;8646;49.716;9.266;2022-11-04T00:27:07;99160.69;;;10.89;100.00
17060;BME280;8646;49.716;9.266;2022-11-04T00:30:28;99166.97;;;10.90;100.00
17060;BME280;8646;49.716;9.266;2022-11-04T00:33:31;99158.56;;;10.94;100.00
17060;BME280;8646;49.716;9.266;2022-11-04T00:36:33;99154.88;;;10.95;100.00
17060;BME280;8646;49.716;9.266;2022-11-04T00:39:36;99145.63;;;10.99;100.00
17060;BME280;8646;49.716;9.266;2022-11-04T00:42:39;99143.69;;;11.01;100.00
17060;BME280;8646;49.716;9.266;2022-11-04T00:45:43;99146.19;;;11.04;100.00
17060;BME280;8646;49.716;9.266;2022-11-04T00:48:47;99144.25;;;11.06;100.00
17060;BME280;8646;49.716;9.266;2022-11-04T00:51:49;99155.66;;;11.12;100.00
17060;BME280;8646;49.716;9.266;2022-11-04T00:54:52;99161.94;;;11.12;100.00
17060;BME280;8646;49.716;9.266;2022-11-04T00:57:56;99173.63;;;11.13;100.00
17060;BME280;8646;49.716;9.266;2022-11-04T01:01:06;99163.69;;;11.13;100.00
17060;BME280;8646;49.716;9.266;2022-11-04T01:04:10;99165.34;;;11.16;100.00
17060;BME280;8646;49.716;9.266;2022-11-04T01:07:13;99168.03;;;11.16;100.00
17060;BME280;8646;49.716;9.266;2022-11-04T01:10:16;99166.13;;;11.18;100.00
17060;BME280;8646;49.716;9.266;2022-11-04T01:13:19;99175.19;;;11.17;100.00
17060;BME280;8646;49.716;9.266;2022-11-04T01:16:24;99162.72;;;11.14;100.00
17060;BME280;8646;49.716;9.266;2022-11-04T01:19:28;99175.19;;;11.17;100.00
17060;BME280;8646;49.716;9.266;2022-11-04T01:22:32;99194.94;;;11.19;100.00
17060;BME280;8646;49.716;9.266;2022-11-04T01:25:38;99194.81;;;11.20;100.00
17060;BME280;8646;49.716;9.266;2022-11-04T01:28:41;99201.88;;;11.23;100.00
17060;BME280;8646;49.716;9.266;2022-11-04T01:31:45;99206.25;;;11.25;100.00
17060;BME280;8646;49.716;9.266;2022-11-04T01:34:48;99199.75;;;11.28;100.00
17060;BME280;8646;49.716;9.266;2022-11-04T01:37:51;99190.66;;;11.29;100.00
17060;BME280;8646;49.716;9.266;2022-11-04T01:40:54;99194.84;;;11.34;100.00
17060;BME280;8646;49.716;9.266;2022-11-04T01:43:58;99188.53;;;11.34;100.00
17060;BME280;8646;49.716;9.266;2022-11-04T01:47:03;99186.59;;;11.36;100.00
17060;BME280;8646;49.716;9.266;2022-11-04T01:50:09;99174.50;;;11.27;100.00
17060;BME280;8646;49.716;9.266;2022-11-04T01:53:15;99176.63;;;11.36;100.00
17060;BME280;8646;49.716;9.266;2022-11-04T01:56:20;99180.13;;;11.38;100.00
17060;BME280;8646;49.716;9.266;2022-11-04T01:59:25;99176.44;;;11.39;100.00
17060;BME280;8646;49.716;9.266;2022-11-04T02:02:31;99182.72;;;11.40;100.00
17060;BME280;8646;49.716;9.266;2022-11-04T02:05:34;99188.16;;;11.40;100.00
17060;BME280;8646;49.716;9.266;2022-11-04T02:08:38;99198.97;;;11.40;100.00
17060;BME280;8646;49.716;9.266;2022-11-04T02:11:42;99207.75;;;11.43;100.00
17060;BME280;8646;49.716;9.266;2022-11-04T02:15:03;99194.13;;;11.45;100.00
17060;BME280;8646;49.716;9.266;2022-11-04T02:18:37;99199.63;;;11.43;100.00
17060;BME280;8646;49.716;9.266;2022-11-04T02:22:09;99211.16;;;11.47;100.00
17060;BME280;8646;49.716;9.266;2022-11-04T02:25:30;99188.81;;;11.43;100.00
17060;BME280;8646;49.716;9.266;2022-11-04T02:29:09;99202.47;;;11.42;100.00
17060;BME280;8646;49.716;9.266;2022-11-04T02:32:18;99197.94;;;11.42;100.00
17060;BME280;8646;49.716;9.266;2022-11-04T02:35:31;99214.06;;;11.44;100.00
17060;BME280;8646;49.716;9.266;2022-11-04T02:38:42;99206.72;;;11.46;100.00
17060;BME280;8646;49.716;9.266;2022-11-04T02:41:55;99214.66;;;11.49;100.00
17060;BME280;8646;49.716;9.266;2022-11-04T02:45:10;99222.19;;;11.44;100.00
17060;BME280;8646;49.716;9.266;2022-11-04T02:48:18;99225.69;;;11.46;100.00
17060;BME280;8646;49.716;9.266;2022-11-04T02:51:28;99216.59;;;11.47;100.00
17060;BME280;8646;49.716;9.266;2022-11-04T02:54:38;99233.72;;;11.47;100.00
17060;BME280;8646;49.716;9.266;2022-11-04T02:57:46;99228.38;;;11.46;100.00
17060;BME280;8646;49.716;9.266;2022-11-04T03:00:51;99222.00;;;11.47;100.00
17060;BME280;8646;49.716;9.266;2022-11-04T03:04:00;99210.59;;;11.42;100.00
17060;BME280;8646;49.716;9.266;2022-11-04T03:07:07;99213.50;;;11.39;100.00
17060;BME280;8646;49.716;9.266;2022-11-04T03:10:20;99220.84;;;11.37;100.00
17060;BME280;8646;49.716;9.266;2022-11-04T03:13:31;99237.31;;;11.34;100.00
17060;BME280;8646;49.716;9.266;2022-11-04T03:16:42;99239.88;;;11.35;100.00
17060;BME280;8646;49.716;9.266;2022-11-04T03:19:51;99247.16;;;11.35;100.00
17060;BME280;8646;49.716;9.266;2022-11-04T03:22:57;99255.28;;;11.35;100.00
17060;BME280;8646;49.716;9.266;2022-11-04T03:26:10;99263.31;;;11.36;100.00
17060;BME280;8646;49.716;9.266;2022-11-04T03:29:21;99268.06;;;11.33;100.00
17060;BME280;8646;49.716;9.266;2022-11-04T03:32:34;99247.34;;;11.32;100.00
17060;BME280;8646;49.716;9.266;2022-11-04T03:35:40;99255.66;;;11.29;100.00
17060;BME280;8646;49.716;9.266;2022-11-04T03:38:43;99263.22;;;11.24;100.00
17060;BME280;8646;49.716;9.266;2022-11-04T03:41:49;99256.13;;;11.21;100.00
17060;BME280;8646;49.716;9.266;2022-11-04T03:44:55;99286.00;;;11.20;100.00
17060;BME280;8646;49.716;9.266;2022-11-04T03:47:59;99297.72;;;11.20;100.00
17060;BME280;8646;49.716;9.266;2022-11-04T03:51:03;99300.53;;;11.19;100.00
17060;BME280;8646;49.716;9.266;2022-11-04T03:54:06;99286.22;;;11.17;100.00
17060;BME280;8646;49.716;9.266;2022-11-04T03:57:29;99309.88;;;11.13;100.00
17060;BME280;8646;49.716;9.266;2022-11-04T04:00:40;99301.75;;;11.13;100.00
17060;BME280;8646;49.716;9.266;2022-11-04T04:03:54;99279.94;;;11.16;100.00
17060;BME280;8646;49.716;9.266;2022-11-04T04:07:03;99304.22;;;11.18;100.00
17060;BME280;8646;49.716;9.266;2022-11-04T04:10:11;99285.03;;;11.21;100.00
17060;BME280;8646;49.716;9.266;2022-11-04T04:13:35;99289.50;;;11.22;100.00
17060;BME280;8646;49.716;9.266;2022-11-04T04:16:41;99286.78;;;11.22;100.00
17060;BME280;8646;49.716;9.266;2022-11-04T04:19:51;99306.13;;;11.16;100.00
17060;BME280;8646;49.716;9.266;2022-11-04T04:22:57;99308.13;;;11.12;100.00
17060;BME280;8646;49.716;9.266;2022-11-04T04:26:05;99313.84;;;11.07;100.00
17060;BME280;8646;49.716;9.266;2022-11-04T04:29:27;99312.56;;;10.99;100.00
17060;BME280;8646;49.716;9.266;2022-11-04T04:32:34;99327.44;;;10.92;100.00
17060;BME280;8646;49.716;9.266;2022-11-04T04:35:43;99319.78;;;10.84;100.00
17060;BME280;8646;49.716;9.266;2022-11-04T04:38:47;99334.63;;;10.77;100.00
17060;BME280;8646;49.716;9.266;2022-11-04T04:42:07;99318.75;;;10.71;100.00
17060;BME280;8646;49.716;9.266;2022-11-04T04:45:30;99317.19;;;10.67;100.00
17060;BME280;8646;49.716;9.266;2022-11-04T04:48:35;99333.78;;;10.61;100.00
17060;BME280;8646;49.716;9.266;2022-11-04T04:51:42;99323.13;;;10.58;100.00
17060;BME280;8646;49.716;9.266;2022-11-04T04:54:46;99324.28;;;10.54;100.00
17060;BME280;8646;49.716;9.266;2022-11-04T04:57:49;99324.47;;;10.51;100.00
17060;BME280;8646;49.716;9.266;2022-11-04T05:00:52;99321.91;;;10.48;100.00
17060;BME280;8646;49.716;9.266;2022-11-04T05:03:55;99317.84;;;10.41;100.00
17060;BME280;8646;49.716;9.266;2022-11-04T05:06:59;99306.41;;;10.36;100.00
17060;BME280;8646;49.716;9.266;2022-11-04T05:10:02;99302.13;;;10.31;100.00
17060;BME280;8646;49.716;9.266;2022-11-04T05:13:06;99304.16;;;10.28;100.00
17060;BME280;8646;49.716;9.266;2022-11-04T05:16:26;99310.78;;;10.22;100.00
17060;BME280;8646;49.716;9.266;2022-11-04T05:19:29;99301.69;;;10.23;100.00
17060;BME280;8646;49.716;9.266;2022-11-04T05:22:33;99302.78;;;10.21;100.00
17060;BME280;8646;49.716;9.266;2022-11-04T05:25:36;99293.78;;;10.20;100.00
17060;BME280;8646;49.716;9.266;2022-11-04T05:28:40;99301.09;;;10.18;100.00
17060;BME280;8646;49.716;9.266;2022-11-04T05:31:43;99295.16;;;10.12;100.00
17060;BME280;8646;49.716;9.266;2022-11-04T05:34:46;99292.97;;;10.03;100.00
17060;BME280;8646;49.716;9.266;2022-11-04T05:37:50;99302.19;;;9.99;100.00
17060;BME280;8646;49.716;9.266;2022-11-04T05:40:53;99319.56;;;9.94;100.00
17060;BME280;8646;49.716;9.266;2022-11-04T05:44:00;99319.63;;;9.93;100.00
17060;BME280;8646;49.716;9.266;2022-11-04T05:47:03;99294.28;;;9.95;100.00
17060;BME280;8646;49.716;9.266;2022-11-04T05:50:07;99295.66;;;9.87;100.00
17060;BME280;8646;49.716;9.266;2022-11-04T05:53:11;99298.53;;;9.84;100.00
17060;BME280;8646;49.716;9.266;2022-11-04T05:56:14;99289.72;;;9.80;100.00
17060;BME280;8646;49.716;9.266;2022-11-04T05:59:17;99291.56;;;9.80;100.00
17060;BME280;8646;49.716;9.266;2022-11-04T06:02:20;99296.09;;;9.79;100.00
17060;BME280;8646;49.716;9.266;2022-11-04T06:05:24;99296.09;;;9.79;100.00
17060;BME280;8646;49.716;9.266;2022-11-04T06:08:29;99298.72;;;9.81;100.00
17060;BME280;8646;49.716;9.266;2022-11-04T06:11:33;99307.84;;;9.78;100.00
17060;BME280;8646;49.716;9.266;2022-11-04T06:14:36;99310.47;;;9.80;100.00
17060;BME280;8646;49.716;9.266;2022-11-04T06:17:39;99321.28;;;9.80;100.00
17060;BME280;8646;49.716;9.266;2022-11-04T06:20:42;99315.97;;;9.78;100.00
17060;BME280;8646;49.716;9.266;2022-11-04T06:23:47;99321.28;;;9.80;100.00
17060;BME280;8646;49.716;9.266;2022-11-04T06:26:50;99328.81;;;9.73;100.00
17060;BME280;8646;49.716;9.266;2022-11-04T06:29:53;99336.09;;;9.73;100.00
17060;BME280;8646;49.716;9.266;2022-11-04T06:32:56;99332.25;;;9.77;100.00
17060;BME280;8646;49.716;9.266;2022-11-04T06:36:01;99320.47;;;9.78;100.00
17060;BME280;8646;49.716;9.266;2022-11-04T06:39:05;99325.16;;;9.74;100.00
17060;BME280;8646;49.716;9.266;2022-11-04T06:42:08;99319.00;;;9.72;100.00
17060;BME280;8646;49.716;9.266;2022-11-04T06:45:11;99319.09;;;9.71;100.00
17060;BME280;8646;49.716;9.266;2022-11-04T06:48:14;99324.47;;;9.71;100.00
17060;BME280;8646;49.716;9.266;2022-11-04T06:51:16;99324.16;;;9.77;100.00
17060;BME280;8646;49.716;9.266;2022-11-04T06:54:21;99311.94;;;9.70;100.00
17060;BME280;8646;49.716;9.266;2022-11-04T06:57:23;99323.53;;;9.72;100.00
17060;BME280;8646;49.716;9.266;2022-11-04T07:00:26;99329.53;;;9.77;100.00
17060;BME280;8646;49.716;9.266;2022-11-04T07:03:29;99338.97;;;9.85;100.00
17060;BME280;8646;49.716;9.266;2022-11-04T07:06:33;99348.31;;;9.95;100.00
17060;BME280;8646;49.716;9.266;2022-11-04T07:09:41;99353.22;;;10.05;100.00
17060;BME280;8646;49.716;9.266;2022-11-04T07:12:44;99359.94;;;10.13;100.00
17060;BME280;8646;49.716;9.266;2022-11-04T07:15:47;99367.66;;;10.21;100.00
17060;BME280;8646;49.716;9.266;2022-11-04T07:18:51;99374.63;;;10.25;100.00
17060;BME280;8646;49.716;9.266;2022-11-04T07:21:56;99370.53;;;10.33;100.00
17060;BME280;8646;49.716;9.266;2022-11-04T07:25:00;99384.22;;;10.30;100.00
17060;BME280;8646;49.716;9.266;2022-11-04T07:28:03;99379.34;;;10.37;100.00
17060;BME280;8646;49.716;9.266;2022-11-04T07:31:07;99391.66;;;10.43;100.00
17060;BME280;8646;49.716;9.266;2022-11-04T07:34:10;99389.47;;;10.49;100.00
17060;BME280;8646;49.716;9.266;2022-11-04T07:37:13;99386.50;;;10.54;100.00
17060;BME280;8646;49.716;9.266;2022-11-04T07:40:17;99386.31;;;10.57;100.00
17060;BME280;8646;49.716;9.266;2022-11-04T07:43:20;99382.50;;;10.61;100.00
17060;BME280;8646;49.716;9.266;2022-11-04T07:46:23;99380.53;;;10.63;100.00
17060;BME280;8646;49.716;9.266;2022-11-04T07:49:26;99377.84;;;10.63;100.00
17060;BME280;8646;49.716;9.266;2022-11-04T07:52:29;99377.22;;;10.74;100.00
17060;BME280;8646;49.716;9.266;2022-11-04T07:55:35;99371.19;;;10.84;100.00
17060;BME280;8646;49.716;9.266;2022-11-04T07:58:44;99368.56;;;10.83;100.00
17060;BME280;8646;49.716;9.266;2022-11-04T08:01:47;99360.09;;;10.89;100.00
17060;BME280;8646;49.716;9.266;2022-11-04T08:04:50;99357.72;;;10.98;99.66
17060;BME280;8646;49.716;9.266;2022-11-04T08:07:53;99352.22;;;11.00;100.00
17060;BME280;8646;49.716;9.266;2022-11-04T08:10:59;99325.50;;;10.94;100.00
17060;BME280;8646;49.716;9.266;2022-11-04T08:14:03;99319.91;;;10.97;100.00
17060;BME280;8646;49.716;9.266;2022-11-04T08:17:05;99363.97;;;11.29;100.00
17060;BME280;8646;49.716;9.266;2022-11-04T08:20:09;99347.19;;;11.38;100.00
17060;BME280;8646;49.716;9.266;2022-11-04T08:23:13;99342.25;;;11.44;99.85
17060;BME280;8646;49.716;9.266;2022-11-04T08:26:18;99317.13;;;11.42;99.76
17060;BME280;8646;49.716;9.266;2022-11-04T08:29:22;99334.44;;;11.68;99.62
17060;BME280;8646;49.716;9.266;2022-11-04T08:32:24;99327.31;;;11.81;99.33
17060;BME280;8646;49.716;9.266;2022-11-04T08:35:27;99335.84;;;11.90;99.28
17060;BME280;8646;49.716;9.266;2022-11-04T08:38:32;99330.59;;;12.01;99.16
17060;BME280;8646;49.716;9.266;2022-11-04T08:41:37;99329.84;;;11.99;98.75
17060;BME280;8646;49.716;9.266;2022-11-04T08:44:41;99342.41;;;12.14;98.52
17060;BME280;8646;49.716;9.266;2022-11-04T08:47:44;99337.63;;;12.17;98.13
17060;BME280;8646;49.716;9.266;2022-11-04T08:50:48;99332.72;;;12.24;97.73
17060;BME280;8646;49.716;9.266;2022-11-04T08:53:51;99349.44;;;12.31;97.64
17060;BME280;8646;49.716;9.266;2022-11-04T08:56:55;99360.94;;;12.34;97.05
17060;BME280;8646;49.716;9.266;2022-11-04T08:59:58;99357.28;;;12.35;96.93
17060;BME280;8646;49.716;9.266;2022-11-04T09:03:02;99365.22;;;12.38;97.00
17060;BME280;8646;49.716;9.266;2022-11-04T09:06:07;99372.97;;;12.44;96.70
17060;BME280;8646;49.716;9.266;2022-11-04T09:09:12;99376.44;;;12.46;96.55
17060;BME280;8646;49.716;9.266;2022-11-04T09:12:17;99381.66;;;12.49;95.88
17060;BME280;8646;49.716;9.266;2022-11-04T09:15:20;99379.94;;;12.48;95.59
17060;BME280;8646;49.716;9.266;2022-11-04T09:18:23;99390.88;;;12.47;95.61
17060;BME280;8646;49.716;9.266;2022-11-04T09:21:26;99375.84;;;12.55;95.16
17060;BME280;8646;49.716;9.266;2022-11-04T09:24:29;99370.00;;;12.61;93.67
17060;BME280;8646;49.716;9.266;2022-11-04T09:27:33;99374.06;;;12.69;93.92
17060;BME280;8646;49.716;9.266;2022-11-04T09:30:36;99370.75;;;12.78;93.36
17060;BME280;8646;49.716;9.266;2022-11-04T09:33:39;99371.00;;;12.87;92.31
17060;BME280;8646;49.716;9.266;2022-11-04T09:36:42;99382.41;;;12.92;91.65
17060;BME280;8646;49.716;9.266;2022-11-04T09:39:46;99375.41;;;13.03;91.33
17060;BME280;8646;49.716;9.266;2022-11-04T09:43:13;99375.50;;;13.01;88.91
17060;BME280;8646;49.716;9.266;2022-11-04T09:46:22;99375.59;;;12.99;87.50
17060;BME280;8646;49.716;9.266;2022-11-04T09:49:27;99369.91;;;12.90;87.21
17060;BME280;8646;49.716;9.266;2022-11-04T09:52:33;99387.75;;;12.94;87.50
17060;BME280;8646;49.716;9.266;2022-11-04T09:55:46;99389.50;;;12.95;88.02
17060;BME280;8646;49.716;9.266;2022-11-04T09:58:52;99378.22;;;13.01;87.42
17060;BME280;8646;49.716;9.266;2022-11-04T10:02:23;99367.16;;;13.04;86.99
17060;BME280;8646;49.716;9.266;2022-11-04T10:05:38;99374.09;;;13.08;85.69
17060;BME280;8646;49.716;9.266;2022-11-04T10:08:54;99350.69;;;12.93;85.50
17060;BME280;8646;49.716;9.266;2022-11-04T10:12:13;99374.94;;;12.96;86.42
17060;BME280;8646;49.716;9.266;2022-11-04T10:15:36;99366.38;;;13.02;85.30
17060;BME280;8646;49.716;9.266;2022-11-04T10:18:49;99367.34;;;13.01;84.85
17060;BME280;8646;49.716;9.266;2022-11-04T10:22:01;99360.16;;;13.00;86.07
17060;BME280;8646;49.716;9.266;2022-11-04T10:25:09;99353.25;;;13.09;85.48
17060;BME280;8646;49.716;9.266;2022-11-04T10:28:17;99349.84;;;13.19;84.94
17060;BME280;8646;49.716;9.266;2022-11-04T10:31:23;99341.78;;;13.18;84.32
17060;BME280;8646;49.716;9.266;2022-11-04T10:34:31;99340.47;;;13.23;84.08
17060;BME280;8646;49.716;9.266;2022-11-04T10:37:37;99335.28;;;13.20;83.85
17060;BME280;8646;49.716;9.266;2022-11-04T10:40:40;99329.84;;;13.20;84.25
17060;BME280;8646;49.716;9.266;2022-11-04T10:43:44;99330.72;;;13.21;84.50
17060;BME280;8646;49.716;9.266;2022-11-04T10:46:55;99332.91;;;13.28;83.74
17060;BME280;8646;49.716;9.266;2022-11-04T10:50:20;99337.03;;;13.34;82.98
17060;BME280;8646;49.716;9.266;2022-11-04T10:53:31;99334.84;;;13.39;83.17
17060;BME280;8646;49.716;9.266;2022-11-04T10:56:37;99334.25;;;13.61;81.82
17060;BME280;8646;49.716;9.266;2022-11-04T10:59:49;99327.50;;;13.66;81.55
17060;BME280;8646;49.716;9.266;2022-11-04T11:02:54;99324.88;;;13.65;82.31
17060;BME280;8646;49.716;9.266;2022-11-04T11:06:13;99325.63;;;13.67;82.53
17060;BME280;8646;49.716;9.266;2022-11-04T11:09:19;99294.19;;;13.63;82.94
17060;BME280;8646;49.716;9.266;2022-11-04T11:12:24;99316.56;;;14.04;82.52
17060;BME280;8646;49.716;9.266;2022-11-04T11:16:04;99316.00;;;14.25;82.73
17060;BME280;8646;49.716;9.266;2022-11-04T11:19:13;99311.06;;;14.30;83.20
17060;BME280;8646;49.716;9.266;2022-11-04T11:22:35;99285.31;;;14.23;82.59
17060;BME280;8646;49.716;9.266;2022-11-04T11:25:41;99298.56;;;14.40;82.74
17060;BME280;8646;49.716;9.266;2022-11-04T11:28:52;99300.19;;;14.42;79.61
17060;BME280;8646;49.716;9.266;2022-11-04T11:32:01;99291.81;;;14.33;78.30
17060;BME280;8646;49.716;9.266;2022-11-04T11:35:14;99294.53;;;14.33;80.02
17060;BME280;8646;49.716;9.266;2022-11-04T11:38:21;99272.97;;;14.30;79.53
17060;BME280;8646;49.716;9.266;2022-11-04T11:41:25;99281.88;;;14.44;79.85
17060;BME280;8646;49.716;9.266;2022-11-04T11:44:34;99275.84;;;14.52;79.50
17060;BME280;8646;49.716;9.266;2022-11-04T11:47:44;99273.31;;;14.62;79.76
17060;BME280;8646;49.716;9.266;2022-11-04T11:50:54;99264.97;;;14.76;79.49
17060;BME280;8646;49.716;9.266;2022-11-04T11:54:07;99255.75;;;14.89;78.58
17060;BME280;8646;49.716;9.266;2022-11-04T11:57:25;99265.28;;;14.95;79.19
17060;BME280;8646;49.716;9.266;2022-11-04T12:00:33;99263.72;;;15.04;78.76
17060;BME280;8646;49.716;9.266;2022-11-04T12:03:43;99265.94;;;15.10;78.27
17060;BME280;8646;49.716;9.266;2022-11-04T12:07:15;99254.34;;;15.19;78.66
17060;BME280;8646;49.716;9.266;2022-11-04T12:10:47;99258.56;;;15.34;77.67
17060;BME280;8646;49.716;9.266;2022-11-04T12:13:56;99256.63;;;15.47;76.72
17060;BME280;8646;49.716;9.266;2022-11-04T12:17:06;99253.34;;;15.55;76.08
17060;BME280;8646;49.716;9.266;2022-11-04T12:20:23;99248.75;;;15.67;76.50
17060;BME280;8646;49.716;9.266;2022-11-04T12:23:32;99251.22;;;15.70;76.08
17060;BME280;8646;49.716;9.266;2022-11-04T12:26:42;99254.94;;;15.69;76.01
17060;BME280;8646;49.716;9.266;2022-11-04T12:30:00;99259.16;;;15.61;76.05
17060;BME280;8646;49.716;9.266;2022-11-04T12:33:16;99270.75;;;15.52;76.00
17060;BME280;8646;49.716;9.266;2022-11-04T12:36:35;99259.81;;;15.41;75.61
17060;BME280;8646;49.716;9.266;2022-11-04T12:40:00;99265.50;;;15.27;75.62
17060;BME280;8646;49.716;9.266;2022-11-04T12:43:18;99265.63;;;15.14;75.52
17060;BME280;8646;49.716;9.266;2022-11-04T12:46:27;99269.81;;;15.07;75.63
17060;BME280;8646;49.716;9.266;2022-11-04T12:50:02;99270.50;;;14.98;75.14
17060;BME280;8646;49.716;9.266;2022-11-04T12:53:18;99272.59;;;14.95;75.68
17060;BME280;8646;49.716;9.266;2022-11-04T12:56:30;99279.56;;;14.99;75.32
17060;BME280;8646;49.716;9.266;2022-11-04T12:59:59;99284.13;;;14.98;75.87
17060;BME280;8646;49.716;9.266;2022-11-04T13:03:09;99281.16;;;15.01;75.50
17060;BME280;8646;49.716;9.266;2022-11-04T13:06:16;99282.03;;;15.02;75.08
17060;BME280;8646;49.716;9.266;2022-11-04T13:09:28;99291.19;;;15.01;74.88
17060;BME280;8646;49.716;9.266;2022-11-04T13:12:37;99291.44;;;14.98;75.11
17060;BME280;8646;49.716;9.266;2022-11-04T13:15:44;99293.50;;;14.94;74.90
17060;BME280;8646;49.716;9.266;2022-11-04T13:18:48;99300.59;;;14.97;75.15
17060;BME280;8646;49.716;9.266;2022-11-04T13:21:52;99306.03;;;14.97;74.87
17060;BME280;8646;49.716;9.266;2022-11-04T13:25:00;99318.69;;;14.98;74.62
17060;BME280;8646;49.716;9.266;2022-11-04T13:28:09;99321.28;;;14.99;74.72
17060;BME280;8646;49.716;9.266;2022-11-04T13:31:20;99316.72;;;15.00;75.07
17060;BME280;8646;49.716;9.266;2022-11-04T13:34:35;99326.75;;;14.99;74.49
17060;BME280;8646;49.716;9.266;2022-11-04T13:37:45;99319.56;;;14.98;74.56
17060;BME280;8646;49.716;9.266;2022-11-04T13:41:01;99327.84;;;14.97;74.97
17060;BME280;8646;49.716;9.266;2022-11-04T13:44:19;99327.19;;;14.93;74.65
17060;BME280;8646;49.716;9.266;2022-11-04T13:47:30;99325.03;;;14.85;74.21
17060;BME280;8646;49.716;9.266;2022-11-04T13:50:36;99342.06;;;14.76;74.24
17060;BME280;8646;49.716;9.266;2022-11-04T13:53:46;99316.94;;;14.49;73.90
17060;BME280;8646;49.716;9.266;2022-11-04T13:56:49;99350.66;;;14.59;74.07
17060;BME280;8646;49.716;9.266;2022-11-04T14:00:17;99356.53;;;14.53;74.60
17060;BME280;8646;49.716;9.266;2022-11-04T14:03:49;99351.56;;;14.47;74.54
17060;BME280;8646;49.716;9.266;2022-11-04T14:06:55;99350.06;;;14.43;74.87
17060;BME280;8646;49.716;9.266;2022-11-04T14:09:59;99363.88;;;14.40;74.98
17060;BME280;8646;49.716;9.266;2022-11-04T14:16:44;99370.31;;;14.39;75.72
17060;BME280;8646;49.716;9.266;2022-11-04T14:19:56;99369.50;;;14.37;76.14
17060;BME280;8646;49.716;9.266;2022-11-04T14:23:01;99375.06;;;14.35;75.71
17060;BME280;8646;49.716;9.266;2022-11-04T14:26:05;99379.88;;;14.32;75.57
17060;BME280;8646;49.716;9.266;2022-11-04T14:29:17;99377.59;;;14.26;76.14
17060;BME280;8646;49.716;9.266;2022-11-04T14:32:24;99381.31;;;14.25;76.47
17060;BME280;8646;49.716;9.266;2022-11-04T14:35:29;99381.63;;;14.20;76.46
17060;BME280;8646;49.716;9.266;2022-11-04T14:38:33;99382.50;;;14.21;76.86
17060;BME280;8646;49.716;9.266;2022-11-04T14:41:57;99385.56;;;14.16;77.63
17060;BME280;8646;49.716;9.266;2022-11-04T14:45:01;99390.13;;;14.16;77.16
17060;BME280;8646;49.716;9.266;2022-11-04T14:48:11;99386.63;;;14.13;77.64
17060;BME280;8646;49.716;9.266;2022-11-04T14:51:23;99389.59;;;14.10;77.77
17060;BME280;8646;49.716;9.266;2022-11-04T14:54:29;99387.72;;;14.11;77.65
17060;BME280;8646;49.716;9.266;2022-11-04T14:57:36;99400.38;;;13.99;77.52
17060;BME280;8646;49.716;9.266;2022-11-04T15:00:50;99403.59;;;13.79;78.50
17060;BME280;8646;49.716;9.266;2022-11-04T15:04:02;99407.19;;;13.67;79.07
17060;BME280;8646;49.716;9.266;2022-11-04T15:07:32;99409.00;;;13.41;80.83
17060;BME280;8646;49.716;9.266;2022-11-04T15:10:35;99415.91;;;13.20;81.74
17060;BME280;8646;49.716;9.266;2022-11-04T15:13:44;99423.59;;;12.99;82.52
17060;BME280;8646;49.716;9.266;2022-11-04T15:16:49;99391.63;;;12.63;84.25
17060;BME280;8646;49.716;9.266;2022-11-04T15:19:57;99398.16;;;12.46;85.37
17060;BME280;8646;49.716;9.266;2022-11-04T15:23:02;99433.81;;;12.54;86.23
17060;BME280;8646;49.716;9.266;2022-11-04T15:26:06;99450.38;;;12.36;87.46
17060;BME280;8646;49.716;9.266;2022-11-04T15:29:10;99440.03;;;12.14;89.06
17060;BME280;8646;49.716;9.266;2022-11-04T15:32:15;99454.25;;;12.03;90.19
17060;BME280;8646;49.716;9.266;2022-11-04T15:35:20;99450.84;;;11.85;91.17
17060;BME280;8646;49.716;9.266;2022-11-04T15:38:25;99455.78;;;11.79;92.19
17060;BME280;8646;49.716;9.266;2022-11-04T15:41:30;99458.22;;;11.68;93.09
17060;BME280;8646;49.716;9.266;2022-11-04T15:44:52;99464.31;;;11.57;93.34
17060;BME280;8646;49.716;9.266;2022-11-04T15:48:21;99471.81;;;11.52;94.80
17060;BME280;8646;49.716;9.266;2022-11-04T15:51:27;99484.31;;;11.55;95.63
17060;BME280;8646;49.716;9.266;2022-11-04T15:54:33;99488.81;;;11.40;96.27
17060;BME280;8646;49.716;9.266;2022-11-04T15:57:38;99471.66;;;11.25;96.80
17060;BME280;8646;49.716;9.266;2022-11-04T16:00:51;99487.09;;;11.23;96.74
17060;BME280;8646;49.716;9.266;2022-11-04T16:03:55;99494.50;;;11.20;97.64
17060;BME280;8646;49.716;9.266;2022-11-04T16:07:06;99503.97;;;11.13;97.45
17060;BME280;8646;49.716;9.266;2022-11-04T16:10:24;99500.91;;;11.03;97.79
17060;BME280;8646;49.716;9.266;2022-11-04T16:13:27;99503.44;;;11.06;98.17
17060;BME280;8646;49.716;9.266;2022-11-04T16:16:30;99507.41;;;11.00;98.27
17060;BME280;8646;49.716;9.266;2022-11-04T16:19:32;99506.09;;;10.92;98.76
17060;BME280;8646;49.716;9.266;2022-11-04T16:22:37;99512.72;;;10.86;98.63
17060;BME280;8646;49.716;9.266;2022-11-04T16:25:41;99506.88;;;10.78;98.90
17060;BME280;8646;49.716;9.266;2022-11-04T16:28:45;99516.97;;;10.75;99.01
17060;BME280;8646;49.716;9.266;2022-11-04T16:32:04;99513.56;;;10.71;99.19
17060;BME280;8646;49.716;9.266;2022-11-04T16:35:14;99519.69;;;10.75;99.47
17060;BME280;8646;49.716;9.266;2022-11-04T16:38:18;99522.31;;;10.76;99.93
17060;BME280;8646;49.716;9.266;2022-11-04T16:41:22;99529.09;;;10.67;100.00
17060;BME280;8646;49.716;9.266;2022-11-04T16:44:25;99525.09;;;10.75;100.00
17060;BME280;8646;49.716;9.266;2022-11-04T16:47:28;99532.88;;;10.81;100.00
17060;BME280;8646;49.716;9.266;2022-11-04T16:50:31;99529.28;;;10.80;99.96